sensor_id;sensor_type;location;lat;lon;timestamp;pressure;altitude;pressure_sealevel;temperature;humidity
38612;BME280;24368;52.156;20.788;2023-03-13T00:03:30;99927.65;;;1.37;89.96
38612;BME280;24368;52.156;20.788;2023-03-13T00:08:32;99918.50;;;1.42;89.66
38612;BME280;24368;52.156;20.788;2023-03-13T00:13:34;99915.48;;;1.45;90.14
38612;BME280;24368;52.156;20.788;2023-03-13T00:18:36;99910.48;;;1.55;91.77
38612;BME280;24368;52.156;20.788;2023-03-13T00:23:38;99905.67;;;1.63;93.17
38612;BME280;24368;52.156;20.788;2023-03-13T00:28:41;99898.56;;;1.71;92.96
38612;BME280;24368;52.156;20.788;2023-03-13T00:33:46;99899.60;;;1.74;93.04
38612;BME280;24368;52.156;20.788;2023-03-13T00:38:48;99898.41;;;1.73;92.98
38612;BME280;24368;52.156;20.788;2023-03-13T00:43:51;99892.39;;;1.72;93.14
38612;BME280;24368;52.156;20.788;2023-03-13T00:48:53;99887.22;;;1.72;93.22
38612;BME280;24368;52.156;20.788;2023-03-13T00:53:56;99888.77;;;1.69;93.34
38612;BME280;24368;52.156;20.788;2023-03-13T00:59:00;99881.16;;;1.66;93.77
38612;BME280;24368;52.156;20.788;2023-03-13T01:04:09;99870.70;;;1.69;93.45
38612;BME280;24368;52.156;20.788;2023-03-13T01:09:14;99872.14;;;1.66;93.65
38612;BME280;24368;52.156;20.788;2023-03-13T01:14:18;99869.49;;;1.64;94.10
38612;BME280;24368;52.156;20.788;2023-03-13T01:19:20;99853.25;;;1.65;94.04
38612;BME280;24368;52.156;20.788;2023-03-13T01:24:22;99847.54;;;1.70;93.69
38612;BME280;24368;52.156;20.788;2023-03-13T01:29:25;99845.92;;;1.71;93.78
38612;BME280;24368;52.156;20.788;2023-03-13T01:34:27;99844.98;;;1.69;93.92
38612;BME280;24368;52.156;20.788;2023-03-13T01:39:28;99843.63;;;1.67;94.10
38612;BME280;24368;52.156;20.788;2023-03-13T01:44:51;99841.34;;;1.65;94.72
38612;BME280;24368;52.156;20.788;2023-03-13T01:49:54;99838.23;;;1.64;96.07
38612;BME280;24368;52.156;20.788;2023-03-13T02:00:09;99826.11;;;1.64;96.38
38612;BME280;24368;52.156;20.788;2023-03-13T02:05:14;99815.92;;;1.56;98.19
38612;BME280;24368;52.156;20.788;2023-03-13T02:10:17;99810.89;;;1.54;98.85
38612;BME280;24368;52.156;20.788;2023-03-13T02:15:22;99812.55;;;1.50;99.64
38612;BME280;24368;52.156;20.788;2023-03-13T02:20:26;99808.27;;;1.46;100.00
38612;BME280;24368;52.156;20.788;2023-03-13T02:30:46;99804.91;;;1.42;100.00
38612;BME280;24368;52.156;20.788;2023-03-13T02:35:51;99796.45;;;1.42;100.00
38612;BME280;24368;52.156;20.788;2023-03-13T02:40:54;99797.61;;;1.45;100.00
38612;BME280;24368;52.156;20.788;2023-03-13T02:46:01;99798.11;;;1.48;100.00
38612;BME280;24368;52.156;20.788;2023-03-13T02:51:07;99795.89;;;1.45;100.00
38612;BME280;24368;52.156;20.788;2023-03-13T02:56:14;99797.36;;;1.41;100.00
38612;BME280;24368;52.156;20.788;2023-03-13T03:01:16;99793.26;;;1.41;100.00
38612;BME280;24368;52.156;20.788;2023-03-13T03:06:18;99795.16;;;1.38;100.00
38612;BME280;24368;52.156;20.788;2023-03-13T03:11:20;99801.77;;;1.36;100.00
38612;BME280;24368;52.156;20.788;2023-03-13T03:16:22;99800.70;;;1.36;100.00
38612;BME280;24368;52.156;20.788;2023-03-13T03:21:23;99797.86;;;1.39;100.00
38612;BME280;24368;52.156;20.788;2023-03-13T03:26:26;99801.84;;;1.44;100.00
38612;BME280;24368;52.156;20.788;2023-03-13T03:31:29;99800.91;;;1.43;100.00
38612;BME280;24368;52.156;20.788;2023-03-13T03:36:31;99800.16;;;1.41;100.00
38612;BME280;24368;52.156;20.788;2023-03-13T03:41:33;99799.74;;;1.39;100.00
38612;BME280;24368;52.156;20.788;2023-03-13T03:46:36;99799.14;;;1.38;100.00
38612;BME280;24368;52.156;20.788;2023-03-13T03:51:37;99781.51;;;1.38;100.00
38612;BME280;24368;52.156;20.788;2023-03-13T03:56:39;99775.21;;;1.40;100.00
38612;BME280;24368;52.156;20.788;2023-03-13T04:01:41;99779.56;;;1.42;100.00
38612;BME280;24368;52.156;20.788;2023-03-13T04:06:44;99785.45;;;1.41;100.00
38612;BME280;24368;52.156;20.788;2023-03-13T04:11:46;99774.65;;;1.36;100.00
38612;BME280;24368;52.156;20.788;2023-03-13T04:16:48;99760.33;;;1.38;100.00
38612;BME280;24368;52.156;20.788;2023-03-13T04:21:49;99757.91;;;1.40;100.00
38612;BME280;24368;52.156;20.788;2023-03-13T04:26:51;99750.57;;;1.38;100.00
38612;BME280;24368;52.156;20.788;2023-03-13T04:31:53;99740.23;;;1.37;100.00
38612;BME280;24368;52.156;20.788;2023-03-13T04:36:55;99734.72;;;1.32;100.00
38612;BME280;24368;52.156;20.788;2023-03-13T04:41:56;99735.58;;;1.29;100.00
38612;BME280;24368;52.156;20.788;2023-03-13T04:46:58;99726.66;;;1.33;100.00
38612;BME280;24368;52.156;20.788;2023-03-13T04:52:00;99715.05;;;1.37;100.00
38612;BME280;24368;52.156;20.788;2023-03-13T04:57:02;99707.02;;;1.45;100.00
38612;BME280;24368;52.156;20.788;2023-03-13T05:02:04;99705.23;;;1.48;100.00
38612;BME280;24368;52.156;20.788;2023-03-13T05:07:06;99709.11;;;1.47;100.00
38612;BME280;24368;52.156;20.788;2023-03-13T05:12:08;99707.69;;;1.45;100.00
38612;BME280;24368;52.156;20.788;2023-03-13T05:17:09;99707.37;;;1.49;100.00
38612;BME280;24368;52.156;20.788;2023-03-13T05:22:13;99703.45;;;1.56;100.00
38612;BME280;24368;52.156;20.788;2023-03-13T05:27:14;99705.89;;;1.60;100.00
38612;BME280;24368;52.156;20.788;2023-03-13T05:32:16;99706.85;;;1.63;100.00
38612;BME280;24368;52.156;20.788;2023-03-13T05:37:18;99712.23;;;1.68;100.00
38612;BME280;24368;52.156;20.788;2023-03-13T05:42:20;99703.39;;;1.68;100.00
38612;BME280;24368;52.156;20.788;2023-03-13T05:47:21;99693.05;;;1.74;100.00
38612;BME280;24368;52.156;20.788;2023-03-13T05:52:23;99690.64;;;1.81;100.00
38612;BME280;24368;52.156;20.788;2023-03-13T05:57:25;99696.10;;;1.85;100.00
38612;BME280;24368;52.156;20.788;2023-03-13T06:02:26;99703.14;;;1.84;100.00
38612;BME280;24368;52.156;20.788;2023-03-13T06:07:29;99696.17;;;1.84;100.00
38612;BME280;24368;52.156;20.788;2023-03-13T06:12:30;99689.10;;;1.90;100.00
38612;BME280;24368;52.156;20.788;2023-03-13T06:17:32;99685.24;;;1.97;100.00
38612;BME280;24368;52.156;20.788;2023-03-13T06:22:34;99679.59;;;2.05;100.00
38612;BME280;24368;52.156;20.788;2023-03-13T06:27:36;99678.51;;;2.12;100.00
38612;BME280;24368;52.156;20.788;2023-03-13T06:32:37;99672.92;;;2.17;100.00
38612;BME280;24368;52.156;20.788;2023-03-13T06:37:39;99669.84;;;2.26;100.00
38612;BME280;24368;52.156;20.788;2023-03-13T06:42:41;99675.83;;;2.36;100.00
38612;BME280;24368;52.156;20.788;2023-03-13T06:47:43;99675.16;;;2.47;100.00
38612;BME280;24368;52.156;20.788;2023-03-13T06:52:45;99672.39;;;2.58;100.00
38612;BME280;24368;52.156;20.788;2023-03-13T06:57:49;99671.06;;;2.66;100.00
38612;BME280;24368;52.156;20.788;2023-03-13T07:02:51;99668.03;;;2.72;100.00
38612;BME280;24368;52.156;20.788;2023-03-13T07:07:54;99669.07;;;2.76;100.00
38612;BME280;24368;52.156;20.788;2023-03-13T07:12:56;99657.59;;;2.85;100.00
38612;BME280;24368;52.156;20.788;2023-03-13T07:17:58;99655.94;;;2.99;100.00
38612;BME280;24368;52.156;20.788;2023-03-13T07:23:00;99649.74;;;3.09;100.00
38612;BME280;24368;52.156;20.788;2023-03-13T07:28:01;99648.31;;;3.18;100.00
38612;BME280;24368;52.156;20.788;2023-03-13T07:33:03;99644.19;;;3.30;100.00
38612;BME280;24368;52.156;20.788;2023-03-13T07:38:05;99640.31;;;3.44;100.00
38612;BME280;24368;52.156;20.788;2023-03-13T07:43:06;99643.39;;;3.61;100.00
38612;BME280;24368;52.156;20.788;2023-03-13T07:48:08;99638.73;;;3.88;100.00
38612;BME280;24368;52.156;20.788;2023-03-13T07:53:10;99637.63;;;4.03;100.00
38612;BME280;24368;52.156;20.788;2023-03-13T07:58:12;99627.23;;;4.16;100.00
38612;BME280;24368;52.156;20.788;2023-03-13T08:03:13;99618.98;;;4.30;100.00
38612;BME280;24368;52.156;20.788;2023-03-13T08:08:15;99615.94;;;4.42;100.00
38612;BME280;24368;52.156;20.788;2023-03-13T08:13:17;99618.11;;;4.48;100.00
38612;BME280;24368;52.156;20.788;2023-03-13T08:18:19;99611.38;;;4.63;100.00
38612;BME280;24368;52.156;20.788;2023-03-13T08:23:20;99613.39;;;4.76;100.00
38612;BME280;24368;52.156;20.788;2023-03-13T08:28:22;99609.45;;;4.94;100.00
38612;BME280;24368;52.156;20.788;2023-03-13T08:33:24;99606.38;;;5.13;100.00
38612;BME280;24368;52.156;20.788;2023-03-13T08:38:25;99600.43;;;5.44;100.00
38612;BME280;24368;52.156;20.788;2023-03-13T08:43:27;99585.96;;;5.69;100.00
38612;BME280;24368;52.156;20.788;2023-03-13T08:48:29;99578.30;;;5.91;100.00
38612;BME280;24368;52.156;20.788;2023-03-13T08:53:32;99573.64;;;6.15;100.00
38612;BME280;24368;52.156;20.788;2023-03-13T08:58:34;99562.61;;;6.30;100.00
38612;BME280;24368;52.156;20.788;2023-03-13T09:03:36;99554.52;;;6.48;100.00
38612;BME280;24368;52.156;20.788;2023-03-13T09:08:39;99540.63;;;6.65;100.00
38612;BME280;24368;52.156;20.788;2023-03-13T09:13:47;99533.64;;;6.87;100.00
38612;BME280;24368;52.156;20.788;2023-03-13T09:18:50;99530.05;;;7.09;100.00
38612;BME280;24368;52.156;20.788;2023-03-13T09:23:53;99522.71;;;7.28;100.00
38612;BME280;24368;52.156;20.788;2023-03-13T09:28:55;99510.71;;;7.34;100.00
38612;BME280;24368;52.156;20.788;2023-03-13T09:33:57;99504.76;;;7.53;100.00
38612;BME280;24368;52.156;20.788;2023-03-13T09:38:59;99501.42;;;7.72;100.00
38612;BME280;24368;52.156;20.788;2023-03-13T09:44:13;99496.41;;;7.85;100.00
38612;BME280;24368;52.156;20.788;2023-03-13T10:00:06;99471.79;;;8.28;100.00
38612;BME280;24368;52.156;20.788;2023-03-13T10:05:24;99477.36;;;8.22;100.00
38612;BME280;24368;52.156;20.788;2023-03-13T10:10:43;99474.42;;;8.18;100.00
38612;BME280;24368;52.156;20.788;2023-03-13T10:15:58;99466.54;;;8.18;100.00
38612;BME280;24368;52.156;20.788;2023-03-13T10:21:18;99472.36;;;8.23;100.00
38612;BME280;24368;52.156;20.788;2023-03-13T10:26:27;99473.54;;;8.33;100.00
38612;BME280;24368;52.156;20.788;2023-03-13T10:31:34;99467.30;;;8.41;100.00
38612;BME280;24368;52.156;20.788;2023-03-13T10:36:42;99452.18;;;8.54;100.00
38612;BME280;24368;52.156;20.788;2023-03-13T10:41:45;99440.66;;;8.52;100.00
38612;BME280;24368;52.156;20.788;2023-03-13T10:46:49;99425.02;;;8.59;100.00
38612;BME280;24368;52.156;20.788;2023-03-13T10:51:58;99417.02;;;8.68;100.00
38612;BME280;24368;52.156;20.788;2023-03-13T11:02:37;99407.07;;;8.85;100.00
38612;BME280;24368;52.156;20.788;2023-03-13T11:07:39;99404.19;;;8.99;100.00
38612;BME280;24368;52.156;20.788;2023-03-13T11:12:55;99394.55;;;9.23;100.00
38612;BME280;24368;52.156;20.788;2023-03-13T11:18:07;99384.17;;;9.45;100.00
38612;BME280;24368;52.156;20.788;2023-03-13T11:38:34;99321.85;;;10.28;97.84
38612;BME280;24368;52.156;20.788;2023-03-13T11:54:32;99309.57;;;10.53;93.62
38612;BME280;24368;52.156;20.788;2023-03-13T12:05:19;99289.02;;;10.42;93.81
38612;BME280;24368;52.156;20.788;2023-03-13T12:10:39;99291.95;;;10.34;95.44
38612;BME280;24368;52.156;20.788;2023-03-13T12:15:47;99292.84;;;10.23;97.98
38612;BME280;24368;52.156;20.788;2023-03-13T12:21:08;99280.02;;;10.15;99.96
38612;BME280;24368;52.156;20.788;2023-03-13T12:26:17;99277.21;;;10.12;100.00
38612;BME280;24368;52.156;20.788;2023-03-13T12:36:45;99256.13;;;10.04;100.00
38612;BME280;24368;52.156;20.788;2023-03-13T12:58:23;99240.54;;;9.67;100.00
38612;BME280;24368;52.156;20.788;2023-03-13T13:03:37;99234.15;;;9.59;100.00
38612;BME280;24368;52.156;20.788;2023-03-13T13:08:41;99224.23;;;9.49;100.00
38612;BME280;24368;52.156;20.788;2023-03-13T13:13:44;99212.06;;;9.39;100.00
38612;BME280;24368;52.156;20.788;2023-03-13T13:18:46;99202.54;;;9.28;100.00
38612;BME280;24368;52.156;20.788;2023-03-13T13:23:48;99196.16;;;9.19;100.00
38612;BME280;24368;52.156;20.788;2023-03-13T13:28:55;99190.92;;;9.15;100.00
38612;BME280;24368;52.156;20.788;2023-03-13T13:33:58;99192.35;;;9.11;100.00
38612;BME280;24368;52.156;20.788;2023-03-13T13:39:00;99186.19;;;9.03;100.00
38612;BME280;24368;52.156;20.788;2023-03-13T13:44:21;99187.80;;;8.98;100.00
38612;BME280;24368;52.156;20.788;2023-03-13T13:49:30;99177.50;;;8.98;100.00
38612;BME280;24368;52.156;20.788;2023-03-13T14:05:15;99162.69;;;8.94;100.00
38612;BME280;24368;52.156;20.788;2023-03-13T14:15:33;99142.06;;;8.93;100.00
38612;BME280;24368;52.156;20.788;2023-03-13T14:20:36;99129.67;;;8.90;100.00
38612;BME280;24368;52.156;20.788;2023-03-13T14:25:49;99112.73;;;8.91;100.00
38612;BME280;24368;52.156;20.788;2023-03-13T14:30:54;99104.33;;;8.94;100.00
38612;BME280;24368;52.156;20.788;2023-03-13T14:35:57;99101.36;;;9.01;100.00
38612;BME280;24368;52.156;20.788;2023-03-13T14:40:59;99089.85;;;9.02;100.00
38612;BME280;24368;52.156;20.788;2023-03-13T14:46:14;99078.03;;;9.00;100.00
38612;BME280;24368;52.156;20.788;2023-03-13T14:51:23;99073.55;;;9.00;100.00
38612;BME280;24368;52.156;20.788;2023-03-13T14:56:44;99079.91;;;9.06;100.00
38612;BME280;24368;52.156;20.788;2023-03-13T15:02:18;99069.88;;;9.06;100.00
38612;BME280;24368;52.156;20.788;2023-03-13T15:07:19;99067.60;;;9.08;100.00
38612;BME280;24368;52.156;20.788;2023-03-13T15:12:22;99064.88;;;9.05;100.00
38612;BME280;24368;52.156;20.788;2023-03-13T15:17:26;99053.77;;;8.98;100.00
38612;BME280;24368;52.156;20.788;2023-03-13T15:22:37;99051.89;;;8.98;100.00
38612;BME280;24368;52.156;20.788;2023-03-13T15:27:39;99049.08;;;9.03;100.00
38612;BME280;24368;52.156;20.788;2023-03-13T15:32:41;99044.33;;;9.01;100.00
38612;BME280;24368;52.156;20.788;2023-03-13T15:37:47;99041.98;;;8.98;100.00
38612;BME280;24368;52.156;20.788;2023-03-13T15:42:50;99041.04;;;9.05;100.00
38612;BME280;24368;52.156;20.788;2023-03-13T15:47:52;99038.73;;;9.07;100.00
38612;BME280;24368;52.156;20.788;2023-03-13T15:52:55;99036.73;;;9.07;100.00
38612;BME280;24368;52.156;20.788;2023-03-13T15:57:58;99030.73;;;9.07;100.00
38612;BME280;24368;52.156;20.788;2023-03-13T16:03:00;99034.14;;;9.02;100.00
38612;BME280;24368;52.156;20.788;2023-03-13T16:08:02;99037.59;;;9.04;100.00
38612;BME280;24368;52.156;20.788;2023-03-13T16:13:03;99033.18;;;9.08;100.00
38612;BME280;24368;52.156;20.788;2023-03-13T16:18:18;99034.34;;;9.07;100.00
38612;BME280;24368;52.156;20.788;2023-03-13T16:23:21;99035.94;;;9.03;100.00
38612;BME280;24368;52.156;20.788;2023-03-13T16:28:22;99041.47;;;9.04;100.00
38612;BME280;24368;52.156;20.788;2023-03-13T16:33:24;99040.41;;;9.06;100.00
38612;BME280;24368;52.156;20.788;2023-03-13T16:38:26;99045.13;;;9.09;100.00
38612;BME280;24368;52.156;20.788;2023-03-13T16:43:28;99040.83;;;9.12;100.00
38612;BME280;24368;52.156;20.788;2023-03-13T16:48:30;99041.34;;;9.12;100.00
38612;BME280;24368;52.156;20.788;2023-03-13T16:53:32;99041.40;;;9.15;100.00
38612;BME280;24368;52.156;20.788;2023-03-13T16:58:33;99036.05;;;9.15;100.00
38612;BME280;24368;52.156;20.788;2023-03-13T17:03:35;99040.66;;;9.24;100.00
38612;BME280;24368;52.156;20.788;2023-03-13T17:08:37;99040.09;;;9.29;100.00
38612;BME280;24368;52.156;20.788;2023-03-13T17:13:42;99046.82;;;9.28;100.00
38612;BME280;24368;52.156;20.788;2023-03-13T17:18:47;99050.81;;;9.33;100.00
38612;BME280;24368;52.156;20.788;2023-03-13T17:23:49;99047.77;;;9.47;100.00
38612;BME280;24368;52.156;20.788;2023-03-13T17:28:53;99048.86;;;9.51;100.00
38612;BME280;24368;52.156;20.788;2023-03-13T17:33:55;99045.59;;;9.55;100.00
38612;BME280;24368;52.156;20.788;2023-03-13T17:39:00;99050.27;;;9.63;100.00
38612;BME280;24368;52.156;20.788;2023-03-13T17:44:02;99048.43;;;9.75;100.00
38612;BME280;24368;52.156;20.788;2023-03-13T17:49:04;99037.17;;;9.82;100.00
38612;BME280;24368;52.156;20.788;2023-03-13T17:54:07;99040.82;;;9.87;100.00
38612;BME280;24368;52.156;20.788;2023-03-13T17:59:15;99033.77;;;9.88;100.00
38612;BME280;24368;52.156;20.788;2023-03-13T18:04:17;99033.39;;;9.87;100.00
38612;BME280;24368;52.156;20.788;2023-03-13T18:09:20;99026.19;;;9.82;100.00
38612;BME280;24368;52.156;20.788;2023-03-13T18:14:22;99025.58;;;9.89;100.00
38612;BME280;24368;52.156;20.788;2023-03-13T18:19:25;99019.19;;;9.87;100.00
38612;BME280;24368;52.156;20.788;2023-03-13T18:24:27;99025.91;;;9.86;100.00
38612;BME280;24368;52.156;20.788;2023-03-13T18:29:29;99025.16;;;9.82;100.00
38612;BME280;24368;52.156;20.788;2023-03-13T18:34:31;99015.58;;;9.87;100.00
38612;BME280;24368;52.156;20.788;2023-03-13T18:39:35;99019.61;;;9.88;100.00
38612;BME280;24368;52.156;20.788;2023-03-13T18:44:37;99014.59;;;9.87;100.00
38612;BME280;24368;52.156;20.788;2023-03-13T18:49:40;99014.21;;;9.89;100.00
38612;BME280;24368;52.156;20.788;2023-03-13T18:54:43;99010.48;;;9.90;100.00
38612;BME280;24368;52.156;20.788;2023-03-13T18:59:45;99006.80;;;9.96;100.00
38612;BME280;24368;52.156;20.788;2023-03-13T19:04:47;99004.41;;;9.97;100.00
38612;BME280;24368;52.156;20.788;2023-03-13T19:09:49;98994.20;;;9.92;100.00
38612;BME280;24368;52.156;20.788;2023-03-13T19:14:51;98983.71;;;9.94;100.00
38612;BME280;24368;52.156;20.788;2023-03-13T19:19:54;98979.96;;;9.94;100.00
38612;BME280;24368;52.156;20.788;2023-03-13T19:24:59;98981.05;;;9.95;100.00
38612;BME280;24368;52.156;20.788;2023-03-13T19:30:02;98988.70;;;9.93;100.00
38612;BME280;24368;52.156;20.788;2023-03-13T19:35:05;98999.14;;;10.00;99.78
38612;BME280;24368;52.156;20.788;2023-03-13T19:40:16;99005.58;;;10.05;99.30
38612;BME280;24368;52.156;20.788;2023-03-13T19:45:18;99004.58;;;10.06;99.06
38612;BME280;24368;52.156;20.788;2023-03-13T19:50:23;98994.30;;;10.03;98.91
38612;BME280;24368;52.156;20.788;2023-03-13T19:55:28;99003.73;;;10.03;99.21
38612;BME280;24368;52.156;20.788;2023-03-13T20:00:29;99000.55;;;10.03;99.16
38612;BME280;24368;52.156;20.788;2023-03-13T20:05:31;99003.55;;;10.06;98.50
38612;BME280;24368;52.156;20.788;2023-03-13T20:10:33;99002.28;;;10.04;98.55
38612;BME280;24368;52.156;20.788;2023-03-13T20:15:35;99000.70;;;10.04;98.56
38612;BME280;24368;52.156;20.788;2023-03-13T20:20:37;98997.97;;;10.07;98.39
38612;BME280;24368;52.156;20.788;2023-03-13T20:25:39;98989.66;;;10.09;98.20
38612;BME280;24368;52.156;20.788;2023-03-13T20:30:42;98991.79;;;10.10;98.21
38612;BME280;24368;52.156;20.788;2023-03-13T20:35:44;98988.79;;;10.10;97.94
38612;BME280;24368;52.156;20.788;2023-03-13T20:40:54;98979.12;;;10.10;98.07
38612;BME280;24368;52.156;20.788;2023-03-13T20:45:56;98974.46;;;10.08;98.26
38612;BME280;24368;52.156;20.788;2023-03-13T20:50:59;98975.88;;;10.10;97.73
38612;BME280;24368;52.156;20.788;2023-03-13T20:56:02;98960.83;;;10.16;97.08
38612;BME280;24368;52.156;20.788;2023-03-13T21:01:05;98965.87;;;10.16;96.41
38612;BME280;24368;52.156;20.788;2023-03-13T21:06:12;98952.55;;;10.20;95.39
38612;BME280;24368;52.156;20.788;2023-03-13T21:11:20;98955.27;;;10.20;95.01
38612;BME280;24368;52.156;20.788;2023-03-13T21:16:22;98941.30;;;10.20;94.51
38612;BME280;24368;52.156;20.788;2023-03-13T21:21:24;98937.48;;;10.17;94.51
38612;BME280;24368;52.156;20.788;2023-03-13T21:26:26;98939.83;;;10.19;93.85
38612;BME280;24368;52.156;20.788;2023-03-13T21:31:28;98939.88;;;10.13;94.31
38612;BME280;24368;52.156;20.788;2023-03-13T21:36:30;98938.71;;;10.06;94.58
38612;BME280;24368;52.156;20.788;2023-03-13T21:41:32;98926.75;;;9.99;94.99
38612;BME280;24368;52.156;20.788;2023-03-13T21:46:35;98910.54;;;9.90;95.71
38612;BME280;24368;52.156;20.788;2023-03-13T21:51:37;98911.29;;;9.89;95.52
38612;BME280;24368;52.156;20.788;2023-03-13T21:56:39;98898.84;;;9.90;95.17
38612;BME280;24368;52.156;20.788;2023-03-13T22:01:40;98894.56;;;9.84;95.39
38612;BME280;24368;52.156;20.788;2023-03-13T22:06:42;98887.12;;;9.76;95.99
38612;BME280;24368;52.156;20.788;2023-03-13T22:11:44;98875.99;;;9.66;96.59
38612;BME280;24368;52.156;20.788;2023-03-13T22:16:46;98873.58;;;9.55;97.74
38612;BME280;24368;52.156;20.788;2023-03-13T22:21:50;98867.93;;;9.57;97.04
38612;BME280;24368;52.156;20.788;2023-03-13T22:26:52;98874.98;;;9.57;97.17
38612;BME280;24368;52.156;20.788;2023-03-13T22:31:54;98881.49;;;9.55;97.29
38612;BME280;24368;52.156;20.788;2023-03-13T22:36:55;98870.02;;;9.56;97.23
38612;BME280;24368;52.156;20.788;2023-03-13T22:41:57;98861.85;;;9.58;96.69
38612;BME280;24368;52.156;20.788;2023-03-13T22:46:59;98862.02;;;9.58;96.24
38612;BME280;24368;52.156;20.788;2023-03-13T22:52:01;98859.66;;;9.62;95.46
38612;BME280;24368;52.156;20.788;2023-03-13T22:57:03;98858.11;;;9.65;95.13
38612;BME280;24368;52.156;20.788;2023-03-13T23:02:05;98862.30;;;9.61;94.86
38612;BME280;24368;52.156;20.788;2023-03-13T23:07:07;98858.38;;;9.53;94.83
38612;BME280;24368;52.156;20.788;2023-03-13T23:12:09;98853.16;;;9.50;94.61
38612;BME280;24368;52.156;20.788;2023-03-13T23:17:11;98852.32;;;9.48;94.34
38612;BME280;24368;52.156;20.788;2023-03-13T23:22:13;98853.10;;;9.40;94.78
38612;BME280;24368;52.156;20.788;2023-03-13T23:27:19;98853.81;;;9.39;94.74
38612;BME280;24368;52.156;20.788;2023-03-13T23:32:21;98841.19;;;9.28;94.95
38612;BME280;24368;52.156;20.788;2023-03-13T23:37:23;98834.77;;;9.22;95.40
38612;BME280;24368;52.156;20.788;2023-03-13T23:42:26;98828.06;;;9.17;94.85
38612;BME280;24368;52.156;20.788;2023-03-13T23:47:28;98822.73;;;9.18;94.44
38612;BME280;24368;52.156;20.788;2023-03-13T23:52:34;98818.16;;;9.17;94.66
38612;BME280;24368;52.156;20.788;2023-03-13T23:57:36;98816.05;;;9.19;93.88
